createdAt,value
2022-12-11T00:00:14.053Z,91.50
2022-12-11T00:02:40.786Z,91.50
2022-12-11T00:05:08.057Z,91.60
2022-12-11T00:07:35.004Z,91.50
2022-12-11T00:10:01.692Z,91.50
2022-12-11T00:12:32.763Z,91.50
2022-12-11T00:14:59.769Z,91.50
2022-12-11T00:17:26.670Z,91.50
2022-12-11T00:19:53.355Z,91.50
2022-12-11T00:22:20.121Z,91.50
2022-12-11T00:24:47.413Z,91.50
2022-12-11T00:27:14.146Z,91.60
2022-12-11T00:29:40.860Z,91.50
2022-12-11T00:32:07.674Z,91.60
2022-12-11T00:34:34.513Z,91.60
2022-12-11T00:37:01.271Z,91.50
2022-12-11T00:39:30.639Z,91.60
2022-12-11T00:41:58.379Z,91.60
2022-12-11T00:44:26.312Z,91.60
2022-12-11T00:46:55.846Z,91.60
2022-12-11T00:49:22.623Z,91.60
2022-12-11T00:51:51.230Z,91.60
2022-12-11T00:54:18.060Z,91.60
2022-12-11T00:56:44.978Z,91.60
2022-12-11T00:59:11.712Z,91.60
2022-12-11T01:01:38.947Z,91.70
2022-12-11T01:04:05.968Z,91.70
2022-12-11T01:06:32.702Z,91.60
2022-12-11T01:09:18.326Z,91.60
2022-12-11T01:11:47.881Z,91.60
2022-12-11T01:14:19.052Z,91.60
2022-12-11T01:16:47.725Z,91.60
2022-12-11T01:19:14.804Z,91.70
2022-12-11T01:21:43.101Z,91.70
2022-12-11T01:24:09.865Z,91.70
2022-12-11T01:26:36.662Z,91.70
2022-12-11T01:29:03.574Z,91.70
2022-12-11T01:31:30.412Z,91.70
2022-12-11T01:33:57.247Z,91.70
2022-12-11T01:36:24.465Z,91.70
2022-12-11T01:38:51.723Z,91.70
2022-12-11T01:41:19.229Z,91.70
2022-12-11T01:44:04.862Z,91.70
2022-12-11T01:46:34.020Z,91.70
2022-12-11T01:49:05.396Z,91.80
2022-12-11T01:51:36.140Z,91.80
2022-12-11T01:54:09.243Z,91.80
2022-12-11T01:56:41.937Z,91.80
2022-12-11T01:59:10.085Z,91.80
2022-12-11T02:01:59.634Z,91.80
2022-12-11T02:04:26.929Z,91.80
2022-12-11T02:06:54.570Z,91.80
2022-12-11T02:09:27.860Z,91.80
2022-12-11T02:12:26.350Z,91.80
2022-12-11T02:15:23.429Z,91.70
2022-12-11T02:17:56.427Z,91.70
2022-12-11T02:20:26.379Z,91.80
2022-12-11T02:23:12.639Z,91.80
2022-12-11T02:26:24.574Z,91.80
2022-12-11T02:28:57.032Z,91.70
2022-12-11T02:31:39.970Z,91.80
2022-12-11T02:34:18.949Z,91.80
2022-12-11T02:36:51.965Z,92.10
2022-12-11T02:39:22.493Z,91.70
2022-12-11T02:41:51.255Z,91.80
2022-12-11T02:44:24.735Z,91.70
2022-12-11T02:46:52.833Z,91.70
2022-12-11T02:49:22.268Z,91.70
2022-12-11T02:51:50.804Z,91.70
2022-12-11T02:54:23.525Z,91.70
2022-12-11T02:57:04.939Z,91.70
2022-12-11T02:59:37.040Z,91.70
2022-12-11T03:02:04.857Z,91.70
2022-12-11T03:04:33.867Z,91.70
2022-12-11T03:07:12.141Z,91.70
2022-12-11T03:09:41.407Z,91.70
2022-12-11T03:12:11.745Z,91.70
2022-12-11T03:14:40.651Z,91.70
2022-12-11T03:17:23.849Z,91.70
2022-12-11T03:20:00.810Z,91.70
2022-12-11T03:22:38.665Z,91.70
2022-12-11T03:25:12.792Z,91.70
2022-12-11T03:27:45.846Z,91.70
2022-12-11T03:30:17.505Z,91.70
2022-12-11T03:32:54.683Z,91.70
2022-12-11T03:35:36.276Z,91.70
2022-12-11T03:38:08.548Z,91.70
2022-12-11T03:40:40.708Z,91.70
2022-12-11T03:43:10.903Z,91.70
2022-12-11T03:45:40.224Z,91.70
2022-12-11T03:48:09.467Z,91.70
2022-12-11T03:50:37.172Z,91.70
2022-12-11T03:53:04.971Z,91.70
2022-12-11T03:55:34.004Z,91.70
2022-12-11T03:58:00.795Z,91.70
2022-12-11T04:00:28.646Z,92.00
2022-12-11T04:03:14.364Z,91.60
2022-12-11T04:05:44.533Z,91.60
2022-12-11T04:08:11.749Z,91.60
2022-12-11T04:10:39.184Z,91.60
2022-12-11T04:13:06.057Z,91.60
2022-12-11T04:15:33.188Z,91.50
2022-12-11T04:18:18.863Z,91.50
2022-12-11T04:21:04.123Z,91.50
2022-12-11T04:23:49.622Z,91.60
2022-12-11T04:26:20.001Z,91.50
2022-12-11T04:28:48.403Z,91.50
2022-12-11T04:31:18.306Z,91.50
2022-12-11T04:33:45.708Z,91.50
2022-12-11T04:36:13.362Z,91.50
2022-12-11T04:38:43.069Z,91.50
2022-12-11T04:41:12.320Z,91.80
2022-12-11T04:43:45.277Z,91.50
2022-12-11T04:46:20.901Z,91.50
2022-12-11T04:48:52.438Z,91.40
2022-12-11T04:51:22.365Z,91.40
2022-12-11T04:53:49.260Z,91.40
2022-12-11T04:56:16.763Z,91.30
2022-12-11T04:58:44.340Z,91.30
2022-12-11T05:01:16.455Z,91.30
2022-12-11T05:03:43.295Z,91.30
2022-12-11T05:06:10.543Z,91.30
2022-12-11T05:08:40.311Z,91.30
2022-12-11T05:11:09.848Z,91.30
2022-12-11T05:13:36.659Z,91.60
2022-12-11T05:16:08.499Z,91.20
2022-12-11T05:18:38.727Z,91.20
2022-12-11T05:21:08.693Z,91.60
2022-12-11T05:23:36.082Z,91.10
2022-12-11T05:26:05.785Z,91.10
2022-12-11T05:28:35.788Z,91.20
2022-12-11T05:31:07.151Z,91.10
2022-12-11T05:33:34.314Z,91.10
2022-12-11T05:36:01.450Z,91.10
2022-12-11T05:38:28.182Z,91.20
2022-12-11T05:41:07.678Z,91.10
2022-12-11T05:43:36.820Z,91.10
2022-12-11T05:46:21.965Z,91.10
2022-12-11T05:48:51.534Z,91.10
2022-12-11T05:51:19.464Z,91.10
2022-12-11T05:53:47.844Z,91.00
2022-12-11T05:56:24.559Z,91.00
2022-12-11T05:58:51.813Z,91.00
2022-12-11T06:01:25.382Z,90.90
2022-12-11T06:03:53.688Z,90.90
2022-12-11T06:06:20.698Z,90.90
2022-12-11T06:08:50.985Z,90.90
2022-12-11T06:11:24.219Z,90.90
2022-12-11T06:13:52.424Z,90.90
2022-12-11T06:16:20.042Z,90.90
2022-12-11T06:18:47.158Z,90.90
2022-12-11T06:21:26.873Z,90.90
2022-12-11T06:23:55.854Z,90.90
2022-12-11T06:26:22.659Z,90.90
2022-12-11T06:28:50.115Z,90.90
2022-12-11T06:31:17.821Z,90.90
2022-12-11T06:33:44.765Z,90.80
2022-12-11T06:36:17.657Z,90.80
2022-12-11T06:38:45.372Z,90.90
2022-12-11T06:41:12.744Z,90.80
2022-12-11T06:43:40.392Z,90.80
2022-12-11T06:46:18.756Z,90.80
2022-12-11T06:48:49.607Z,90.80
2022-12-11T06:51:19.267Z,90.80
2022-12-11T06:53:51.079Z,90.80
2022-12-11T06:56:26.950Z,90.80
2022-12-11T06:58:53.997Z,90.80
2022-12-11T07:01:26.290Z,90.70
2022-12-11T07:03:54.722Z,90.80
2022-12-11T07:06:21.986Z,90.80
2022-12-11T07:08:51.902Z,90.70
2022-12-11T07:11:19.882Z,90.70
2022-12-11T07:13:47.513Z,90.70
2022-12-11T07:16:15.918Z,91.10
2022-12-11T07:18:53.167Z,90.80
2022-12-11T07:21:21.324Z,90.70
2022-12-11T07:23:49.335Z,90.70
2022-12-11T07:26:19.498Z,90.70
2022-12-11T07:28:46.634Z,90.70
2022-12-11T07:31:16.813Z,90.70
2022-12-11T07:33:43.858Z,90.70
2022-12-11T07:36:15.176Z,90.60
2022-12-11T07:38:41.993Z,90.60
2022-12-11T07:41:11.580Z,90.60
2022-12-11T07:43:41.943Z,90.60
2022-12-11T07:46:15.635Z,90.60
2022-12-11T07:48:44.678Z,90.60
2022-12-11T07:51:15.576Z,90.60
2022-12-11T07:53:44.178Z,90.60
2022-12-11T07:56:11.727Z,90.60
2022-12-11T07:58:39.055Z,90.60
2022-12-11T08:01:13.969Z,90.60
2022-12-11T08:03:41.007Z,90.60
2022-12-11T08:06:08.251Z,90.60
2022-12-11T08:08:38.046Z,90.60
2022-12-11T08:11:06.717Z,90.50
2022-12-11T08:13:33.633Z,90.50
2022-12-11T08:16:07.343Z,90.50
2022-12-11T08:18:37.900Z,90.50
2022-12-11T08:21:13.111Z,90.50
2022-12-11T08:23:39.885Z,90.50
2022-12-11T08:26:09.406Z,90.50
2022-12-11T08:28:36.381Z,90.50
2022-12-11T08:31:11.379Z,90.50
2022-12-11T08:33:40.013Z,90.50
2022-12-11T08:36:08.773Z,90.40
2022-12-11T08:38:38.774Z,90.40
2022-12-11T08:41:23.357Z,90.40
2022-12-11T08:43:54.891Z,90.40
2022-12-11T08:46:27.154Z,90.40
2022-12-11T08:48:55.105Z,90.40
2022-12-11T08:51:25.715Z,90.40
2022-12-11T08:53:56.179Z,90.40
2022-12-11T08:56:23.774Z,90.40
2022-12-11T08:58:51.983Z,90.40
2022-12-11T09:01:26.041Z,90.40
2022-12-11T09:03:54.751Z,90.40
2022-12-11T09:06:24.200Z,90.30
2022-12-11T09:08:56.156Z,90.30
2022-12-11T09:11:29.064Z,90.30
2022-12-11T09:13:55.887Z,90.30
2022-12-11T09:16:24.980Z,90.30
2022-12-11T09:18:53.565Z,90.30
2022-12-11T09:21:22.547Z,90.30
2022-12-11T09:23:49.513Z,90.30
2022-12-11T09:26:18.323Z,90.30
2022-12-11T09:28:46.940Z,90.30
2022-12-11T09:31:23.644Z,90.20
2022-12-11T09:33:52.061Z,90.20
2022-12-11T09:36:19.053Z,90.20
2022-12-11T09:38:46.511Z,90.20
2022-12-11T09:41:31.646Z,90.20
2022-12-11T09:44:31.324Z,90.60
2022-12-11T09:46:59.184Z,90.20
2022-12-11T09:49:25.836Z,90.20
2022-12-11T09:52:01.842Z,90.20
2022-12-11T09:54:28.808Z,90.10
2022-12-11T09:56:57.622Z,90.10
2022-12-11T09:59:43.743Z,90.10
2022-12-11T10:02:39.007Z,90.20
2022-12-11T10:05:36.457Z,90.10
2022-12-11T10:08:14.304Z,90.10
2022-12-11T10:10:54.618Z,90.10
2022-12-11T10:13:46.313Z,90.10
2022-12-11T10:16:35.011Z,90.10
2022-12-11T10:19:04.486Z,90.10
2022-12-11T10:21:39.984Z,90.20
2022-12-11T10:24:29.358Z,90.10
2022-12-11T10:27:15.556Z,90.20
2022-12-11T10:29:42.400Z,90.20
2022-12-11T10:32:22.876Z,90.20
2022-12-11T10:34:57.350Z,90.10
2022-12-11T10:37:24.352Z,90.10
2022-12-11T10:39:51.121Z,90.10
2022-12-11T10:42:20.562Z,90.10
2022-12-11T10:45:01.839Z,90.00
2022-12-11T10:47:29.162Z,90.00
2022-12-11T10:50:03.854Z,90.00
2022-12-11T10:52:44.478Z,90.00
2022-12-11T10:55:23.479Z,90.10
2022-12-11T10:58:02.714Z,90.10
2022-12-11T11:00:38.446Z,90.10
2022-12-11T11:03:20.038Z,90.10
2022-12-11T11:05:49.537Z,90.00
2022-12-11T11:08:21.609Z,90.10
2022-12-11T11:10:57.283Z,90.10
2022-12-11T11:13:26.448Z,90.00
2022-12-11T11:16:09.888Z,90.10
2022-12-11T11:18:37.390Z,90.00
2022-12-11T11:21:04.444Z,90.00
2022-12-11T11:23:31.289Z,90.00
2022-12-11T11:26:00.756Z,90.00
2022-12-11T11:28:36.032Z,90.00
2022-12-11T11:31:06.312Z,90.00
2022-12-11T11:33:45.511Z,89.90
2022-12-11T11:36:22.185Z,89.90
2022-12-11T11:39:03.968Z,89.90
2022-12-11T11:41:55.281Z,89.90
2022-12-11T11:44:30.055Z,89.90
2022-12-11T11:47:23.332Z,90.00
2022-12-11T11:50:03.847Z,90.00
2022-12-11T11:52:38.217Z,90.00
2022-12-11T11:55:21.476Z,90.00
2022-12-11T11:58:01.120Z,90.00
2022-12-11T12:00:33.647Z,90.00
2022-12-11T12:03:16.185Z,89.90
2022-12-11T12:05:55.627Z,89.80
2022-12-11T12:08:46.378Z,89.90
2022-12-11T12:11:41.290Z,89.90
2022-12-11T12:14:51.044Z,89.90
2022-12-11T12:17:38.074Z,89.90
2022-12-11T12:20:13.678Z,89.90
2022-12-11T12:23:08.278Z,89.80
2022-12-11T12:25:54.109Z,89.80
2022-12-11T12:28:45.112Z,89.90
2022-12-11T12:31:27.879Z,89.80
2022-12-11T12:34:33.288Z,89.90
2022-12-11T12:37:27.512Z,90.00
2022-12-11T12:40:00.180Z,89.90
2022-12-11T12:43:08.435Z,89.90
2022-12-11T12:45:56.198Z,90.00
2022-12-11T12:48:24.983Z,89.90
2022-12-11T12:50:52.027Z,89.90
2022-12-11T12:53:23.645Z,89.70
2022-12-11T12:55:51.569Z,89.70
2022-12-11T12:58:35.661Z,89.70
2022-12-11T13:01:19.389Z,89.70
2022-12-11T13:04:05.741Z,89.70
2022-12-11T13:06:45.494Z,89.70
2022-12-11T13:09:25.915Z,89.80
2022-12-11T13:11:59.762Z,89.70
2022-12-11T13:14:33.757Z,89.60
2022-12-11T13:17:21.769Z,89.60
2022-12-11T13:19:50.763Z,89.70
2022-12-11T13:22:17.514Z,89.50
2022-12-11T13:24:53.422Z,89.60
2022-12-11T13:27:43.728Z,89.50
2022-12-11T13:30:24.720Z,89.40
2022-12-11T13:33:14.549Z,89.40
2022-12-11T13:35:41.751Z,90.00
2022-12-11T13:38:17.580Z,89.40
2022-12-11T13:40:46.748Z,89.30
2022-12-11T13:43:23.664Z,89.40
2022-12-11T13:46:02.172Z,89.40
2022-12-11T13:48:37.889Z,89.40
2022-12-11T13:51:06.167Z,89.30
2022-12-11T13:53:36.220Z,89.10
2022-12-11T13:56:13.871Z,89.10
2022-12-11T13:58:40.784Z,89.10
2022-12-11T14:01:11.489Z,89.10
2022-12-11T14:03:53.881Z,89.00
2022-12-11T14:06:20.709Z,89.00
2022-12-11T14:08:53.145Z,89.10
2022-12-11T14:11:27.933Z,89.00
2022-12-11T14:13:59.616Z,88.90
2022-12-11T14:16:27.797Z,88.70
2022-12-11T14:19:02.200Z,88.60
2022-12-11T14:21:31.143Z,88.40
2022-12-11T14:24:00.561Z,88.40
2022-12-11T14:26:30.283Z,88.20
2022-12-11T14:28:57.070Z,88.20
2022-12-11T14:31:29.669Z,88.20
2022-12-11T14:34:12.743Z,88.10
2022-12-11T14:36:41.132Z,88.10
2022-12-11T14:39:14.328Z,88.10
2022-12-11T14:42:10.494Z,88.00
2022-12-11T14:44:50.339Z,87.90
2022-12-11T14:47:21.551Z,87.90
2022-12-11T14:50:09.390Z,87.80
2022-12-11T14:52:41.178Z,87.70
2022-12-11T14:55:20.708Z,87.70
2022-12-11T14:57:51.659Z,87.70
2022-12-11T15:00:38.231Z,87.40
2022-12-11T15:03:22.995Z,87.40
2022-12-11T15:05:51.596Z,87.40
2022-12-11T15:08:24.824Z,87.40
2022-12-11T15:11:30.042Z,87.40
2022-12-11T15:14:00.240Z,87.30
2022-12-11T15:16:31.592Z,87.30
2022-12-11T15:18:58.831Z,87.30
2022-12-11T15:21:33.935Z,87.30
2022-12-11T15:24:04.022Z,87.00
2022-12-11T15:26:33.793Z,87.00
2022-12-11T15:29:27.239Z,86.90
2022-12-11T15:32:14.147Z,86.90
2022-12-11T15:34:59.042Z,86.90
2022-12-11T15:37:28.585Z,86.80
2022-12-11T15:39:56.960Z,86.80
2022-12-11T15:42:26.765Z,86.90
2022-12-11T15:44:55.488Z,86.70
2022-12-11T15:47:25.677Z,86.80
2022-12-11T15:49:59.386Z,86.70
2022-12-11T15:52:26.275Z,86.70
2022-12-11T15:54:53.133Z,86.60
2022-12-11T15:57:22.959Z,86.40
2022-12-11T15:59:52.676Z,86.50
2022-12-11T16:02:19.437Z,86.50
2022-12-11T16:04:46.377Z,86.30
2022-12-11T16:07:23.021Z,86.30
2022-12-11T16:09:49.846Z,86.30
2022-12-11T16:12:17.108Z,86.40
2022-12-11T16:14:45.274Z,86.30
2022-12-11T16:17:14.885Z,86.30
2022-12-11T16:19:43.367Z,86.20
2022-12-11T16:22:11.510Z,86.20
2022-12-11T16:24:41.163Z,86.20
2022-12-11T16:27:11.571Z,86.00
2022-12-11T16:29:40.694Z,86.00
2022-12-11T16:32:08.351Z,86.00
2022-12-11T16:34:37.322Z,85.90
2022-12-11T16:37:10.930Z,85.90
2022-12-11T16:39:38.600Z,85.90
2022-12-11T16:42:06.505Z,85.90
2022-12-11T16:44:33.391Z,85.80
2022-12-11T16:47:00.114Z,85.80
2022-12-11T16:49:27.003Z,85.80
2022-12-11T16:51:53.885Z,85.90
2022-12-11T16:54:20.576Z,85.80
2022-12-11T16:56:47.465Z,85.80
2022-12-11T16:59:14.158Z,85.80
2022-12-11T17:01:44.945Z,85.80
2022-12-11T17:04:11.745Z,85.60
2022-12-11T17:06:38.574Z,85.60
2022-12-11T17:09:05.371Z,85.60
2022-12-11T17:11:32.118Z,85.50
2022-12-11T17:14:02.922Z,85.50
2022-12-11T17:16:33.974Z,85.40
2022-12-11T17:19:00.844Z,85.50
2022-12-11T17:21:27.610Z,85.50
2022-12-11T17:23:54.416Z,85.50
2022-12-11T17:26:21.316Z,85.40
2022-12-11T17:28:48.300Z,85.30
2022-12-11T17:31:19.340Z,85.30
2022-12-11T17:33:46.995Z,85.30
2022-12-11T17:36:17.692Z,85.30
2022-12-11T17:38:47.792Z,86.10
2022-12-11T17:41:20.501Z,85.30
2022-12-11T17:43:49.549Z,85.30
2022-12-11T17:46:16.948Z,85.20
2022-12-11T17:48:46.347Z,85.10
2022-12-11T17:51:20.944Z,85.10
2022-12-11T17:53:48.029Z,85.10
2022-12-11T17:56:14.837Z,85.00
2022-12-11T17:58:41.918Z,84.90
2022-12-11T18:01:09.989Z,84.90
2022-12-11T18:03:38.018Z,84.90
2022-12-11T18:06:11.402Z,84.90
2022-12-11T18:08:39.561Z,84.80
2022-12-11T18:11:19.649Z,84.80
2022-12-11T18:13:46.657Z,84.70
2022-12-11T18:16:17.396Z,84.70
2022-12-11T18:18:46.291Z,84.60
2022-12-11T18:21:15.828Z,84.70
2022-12-11T18:23:42.913Z,84.70
2022-12-11T18:26:11.738Z,84.60
2022-12-11T18:28:41.163Z,84.60
2022-12-11T18:31:09.753Z,84.60
2022-12-11T18:33:38.932Z,84.60
2022-12-11T18:36:06.576Z,84.50
2022-12-11T18:38:34.066Z,84.40
2022-12-11T18:41:05.448Z,84.50
2022-12-11T18:43:32.471Z,84.50
2022-12-11T18:45:59.644Z,84.50
2022-12-11T18:48:32.382Z,84.60
2022-12-11T18:50:59.224Z,84.50
2022-12-11T18:53:28.942Z,84.40
2022-12-11T18:56:00.232Z,84.50
2022-12-11T18:58:27.433Z,84.60
2022-12-11T19:00:54.326Z,84.60
2022-12-11T19:03:21.071Z,84.60
2022-12-11T19:05:47.742Z,84.50
2022-12-11T19:08:16.171Z,84.40
2022-12-11T19:10:47.346Z,84.50
2022-12-11T19:13:14.893Z,84.50
2022-12-11T19:15:43.096Z,84.60
2022-12-11T19:18:10.652Z,84.60
2022-12-11T19:20:49.199Z,84.70
2022-12-11T19:23:17.747Z,84.60
2022-12-11T19:25:47.671Z,84.60
2022-12-11T19:28:15.440Z,84.60
2022-12-11T19:30:49.927Z,84.60
2022-12-11T19:33:17.212Z,84.60
2022-12-11T19:35:44.345Z,84.60
2022-12-11T19:38:12.729Z,84.60
2022-12-11T19:40:44.341Z,84.50
2022-12-11T19:43:11.632Z,84.50
2022-12-11T19:45:42.790Z,84.50
2022-12-11T19:48:09.504Z,84.60
2022-12-11T19:50:36.488Z,84.50
2022-12-11T19:53:03.939Z,84.50
2022-12-11T19:55:30.835Z,84.60
2022-12-11T19:57:57.617Z,84.60
2022-12-11T20:00:24.866Z,84.60
2022-12-11T20:02:51.896Z,84.60
2022-12-11T20:05:21.748Z,84.60
2022-12-11T20:07:52.086Z,84.60
2022-12-11T20:10:24.401Z,84.60
2022-12-11T20:12:52.538Z,84.70
2022-12-11T20:15:20.469Z,84.70
2022-12-11T20:17:47.452Z,84.70
2022-12-11T20:20:14.192Z,84.70
2022-12-11T20:22:40.975Z,84.70
2022-12-11T20:25:08.089Z,84.70
2022-12-11T20:27:34.907Z,84.80
2022-12-11T20:30:01.874Z,84.80
2022-12-11T20:32:28.578Z,84.80
2022-12-11T20:34:56.770Z,84.80
2022-12-11T20:37:24.417Z,84.80
2022-12-11T20:39:51.466Z,84.80
2022-12-11T20:42:20.822Z,84.80
2022-12-11T20:44:49.400Z,84.80
2022-12-11T20:47:19.736Z,84.70
2022-12-11T20:49:49.748Z,84.70
2022-12-11T20:52:17.421Z,84.70
2022-12-11T20:54:44.981Z,84.80
2022-12-11T20:57:12.463Z,84.80
2022-12-11T20:59:39.266Z,84.70
2022-12-11T21:02:08.454Z,84.70
2022-12-11T21:04:41.008Z,84.60
2022-12-11T21:07:09.465Z,84.80
2022-12-11T21:09:37.020Z,84.80
2022-12-11T21:12:15.749Z,84.80
2022-12-11T21:14:42.422Z,84.90
2022-12-11T21:17:09.132Z,84.80
2022-12-11T21:19:36.515Z,84.80
2022-12-11T21:22:03.847Z,84.90
2022-12-11T21:24:31.470Z,84.90
2022-12-11T21:26:59.071Z,84.90
2022-12-11T21:29:29.274Z,84.90
2022-12-11T21:31:56.499Z,85.00
2022-12-11T21:34:25.731Z,85.00
2022-12-11T21:36:56.518Z,85.00
2022-12-11T21:39:25.305Z,84.90
2022-12-11T21:41:52.019Z,84.90
2022-12-11T21:47:08.602Z,85.00
2022-12-11T21:49:38.198Z,85.00
2022-12-11T21:52:09.027Z,85.00
2022-12-11T21:54:35.812Z,85.10
2022-12-11T21:57:02.663Z,85.00
2022-12-11T21:59:29.947Z,85.00
2022-12-11T22:01:57.077Z,85.00
2022-12-11T22:04:23.909Z,85.10
2022-12-11T22:06:50.686Z,85.10
2022-12-11T22:09:18.041Z,85.10
2022-12-11T22:11:48.216Z,85.20
2022-12-11T22:14:17.753Z,85.10
2022-12-11T22:16:47.585Z,85.20
2022-12-11T22:19:14.389Z,85.30
2022-12-11T22:21:41.126Z,85.20
2022-12-11T22:24:08.131Z,85.10
2022-12-11T22:26:37.630Z,85.10
2022-12-11T22:29:04.410Z,85.10
2022-12-11T22:31:31.118Z,85.10
2022-12-11T22:33:57.981Z,85.10
2022-12-11T22:36:26.651Z,85.10
2022-12-11T22:38:53.502Z,85.10
2022-12-11T22:41:26.150Z,85.10
2022-12-11T22:43:53.518Z,85.10
2022-12-11T22:46:24.965Z,85.10
2022-12-11T22:48:52.562Z,85.10
2022-12-11T22:51:20.101Z,85.10
2022-12-11T22:53:47.586Z,85.20
2022-12-11T22:56:14.498Z,85.10
2022-12-11T22:58:41.714Z,85.10
2022-12-11T23:01:14.458Z,85.10
2022-12-11T23:03:41.331Z,85.10
2022-12-11T23:06:11.443Z,85.10
2022-12-11T23:08:39.582Z,85.00
2022-12-11T23:11:15.379Z,85.00
2022-12-11T23:13:42.239Z,84.90
2022-12-11T23:16:09.570Z,85.10
2022-12-11T23:18:36.557Z,84.90
2022-12-11T23:21:04.241Z,85.00
2022-12-11T23:23:30.939Z,85.10
2022-12-11T23:25:57.816Z,85.00
2022-12-11T23:28:27.002Z,85.00
2022-12-11T23:30:53.828Z,85.00
2022-12-11T23:33:20.679Z,85.10
2022-12-11T23:35:47.500Z,85.10
2022-12-11T23:38:14.170Z,85.10
2022-12-11T23:40:40.864Z,85.10
2022-12-11T23:43:07.666Z,85.10
2022-12-11T23:45:34.441Z,85.00
2022-12-11T23:48:01.288Z,85.00
2022-12-11T23:50:28.207Z,85.00
2022-12-11T23:52:54.947Z,85.00
2022-12-11T23:55:21.950Z,85.00
2022-12-11T23:57:48.902Z,85.00
